Akulivik, Quebec

1:48 PM EST on March 04, 2015 (GMT -0500)
Puvirnituq | Change Station
CLOSE
Current Station
Airport
Location: Povungnituq,
Elevation: 75 ft
Nearby Weather Stations

Elev 75 ft 60.05 °N, 77.29 °W | Updated 48 minutes ago

Clear
Clear
-29 °F
Feels Like -48 °F
N
7
Wind Variable Wind from NW

Today is forecast to be nearly the same temperature as yesterday.

Today
High -- | Low -- °F
--% Chance of Precip.
Yesterday
High -- | Low -- °F
Precip. -- in
7:04 AM 5:45 PM
Waxing Gibbous, 99% visible
Pressure 29.57 in
Visibility 9.0 miles
Clouds Clear
Windchill -48 °F
Dew Point -36 °F
Humidity 68%
Rainfall 0.00 in
Snow Depth Not available.
UV 2 out of 12
Pollen Not available.
Air Quality Not available.
Flu Activity Not available.
METAR CYPX 041800Z AUTO 32006KT 9SM CLR M34/M38 A2955 RMK SLP013

More Conditions Fewer Conditions

Pressure 29.57 in
Visibility 9.0 miles
Clouds Clear
Windchill -48 °F
Dew Point -36 °F
Humidity 68%
Rainfall 0.00 in
Snow Depth Not available.
UV 2 out of 12
Pollen Not available.
Air Quality Not available.
Flu Activity Not available.
METAR CYPX 041800Z AUTO 32006KT 9SM CLR M34/M38 A2955 RMK SLP013

More Conditions Fewer Conditions

10-Day Weather Forecast

Almanac

Astronomy

Mar. 04, 2015 Rise Set
Actual Time
Civil Twilight
Nautical Twilight
Astronomical Twilight
Moon
Length of Visible Light
Length of Day
Tomorrow will be .
, % of the Moon is Illuminated

Today's Extremes

Country Highs Country Lows

Community

WunderPhotos

Upload Photos

1,802,536 photos uploaded!

WunderBlogs® & News

Nearby

Air Quality

  Air Quality AQ Index Pollutant
Not available.

Snow Depth

Station Depth Elevation

Earthquake Activity

City Distance Mag. Time & Date
Minimum magnitude displayed is 2.5.

Coastal Water Temperatures

Place Temperature

Nearby Weather Stations